Time;durP1;ratioP1;P1;durP2;ratioP2;P2;SDS_P1;SDS_P2;PMS_P1;PMS_P2;Temp;Humidity;BMP_temperature;BMP_pressure;BME280_temperature;BME280_humidity;BME280_pressure;Samples;Min_cycle;Max_cycle;Signal;HPM_P1;HPM_P2
2022/04/21 00:01:22;;;;;;;3.92;1.20;;;18.00;81.60;;;;;;4948654;28;95852;-61
2022/04/21 00:03:53;;;;;;;6.00;1.50;;;18.10;81.40;;;;;;4960528;28;95800;-58
2022/04/21 00:06:24;;;;;;;2.97;1.25;;;18.20;81.70;;;;;;4960737;28;95964;-62
2022/04/21 00:08:55;;;;;;;6.15;1.52;;;18.20;81.30;;;;;;4960849;28;95487;-56
2022/04/21 00:11:25;;;;;;;2.83;1.30;;;18.20;81.30;;;;;;4956433;28;96136;-58
2022/04/21 00:13:56;;;;;;;4.65;1.85;;;18.20;81.10;;;;;;4958541;28;95756;-57
2022/04/21 00:16:27;;;;;;;;;;;18.30;81.00;;;;;;4950565;28;98638;-59
2022/04/21 00:18:59;;;;;;;2.95;1.65;;;18.30;80.90;;;;;;4960431;28;96596;-57
2022/04/21 00:23:26;;;;;;;;;;;18.30;80.70;;;;;;4955922;28;96800;-55
2022/04/21 00:24:20;;;;;;;9.18;1.65;;;18.40;80.60;;;;;;4962631;28;95851;-58
2022/04/21 00:26:50;;;;;;;2.97;1.70;;;18.40;80.50;;;;;;4958859;28;95994;-56
2022/04/21 00:29:21;;;;;;;4.47;1.52;;;18.40;80.50;;;;;;4956539;28;96700;-60
2022/04/21 00:31:53;;;;;;;4.32;1.48;;;18.40;80.40;;;;;;4952865;28;95690;-58
2022/04/21 00:34:24;;;;;;;2.92;1.77;;;18.50;80.30;;;;;;4960631;28;95760;-58
2022/04/21 00:36:55;;;;;;;3.85;1.42;;;18.50;80.10;;;;;;4960390;28;96849;-58
2022/04/21 00:39:26;;;;;;;6.20;1.75;;;18.60;80.00;;;;;;4961417;28;95694;-59
2022/04/21 00:42:01;;;;;;;4.25;1.40;;;18.60;79.90;;;;;;4951075;28;95459;-59
2022/04/21 00:44:33;;;;;;;4.03;1.67;;;18.60;79.90;;;;;;4955362;28;99799;-61
2022/04/21 00:47:06;;;;;;;4.63;1.55;;;18.60;79.70;;;;;;4950598;28;95931;-60
2022/04/21 00:49:36;;;;;;;3.22;1.60;;;18.60;79.80;;;;;;4960056;28;96067;-58
2022/04/21 00:52:08;;;;;;;2.58;1.30;;;18.70;79.70;;;;;;4959086;28;95671;-57
2022/04/21 00:54:39;;;;;;;8.52;1.40;;;18.70;79.60;;;;;;4962141;28;95578;-55
2022/04/21 00:57:11;;;;;;;3.60;1.50;;;18.70;79.50;;;;;;4960583;28;96646;-58
2022/04/21 00:59:45;;;;;;;7.47;1.80;;;18.70;79.30;;;;;;4957761;28;95660;-54
2022/04/21 01:05:05;;;;;;;5.47;1.60;;;18.70;79.30;;;;;;4961036;28;95851;-54
2022/04/21 01:07:39;;;;;;;4.45;1.60;;;18.70;79.30;;;;;;4957130;28;96545;-58
2022/04/21 01:10:11;;;;;;;4.93;1.83;;;18.70;79.30;;;;;;4961055;28;96471;-57
2022/04/21 01:12:43;;;;;;;2.83;1.35;;;18.60;79.20;;;;;;4962298;28;96671;-53
2022/04/21 01:15:14;;;;;;;4.22;1.10;;;18.60;79.30;;;;;;4960059;28;95944;-56
2022/04/21 01:17:46;;;;;;;3.30;1.48;;;18.60;79.20;;;;;;4933410;28;98527;-59
2022/04/21 01:20:18;;;;;;;2.85;1.58;;;18.60;79.10;;;;;;4947693;28;96654;-57
2022/04/21 01:22:54;;;;;;;2.50;1.02;;;18.70;78.20;;;;;;4942984;28;96699;-59
2022/04/21 01:25:25;;;;;;;2.00;1.08;;;18.60;79.40;;;;;;4946621;28;96612;-61
2022/04/21 01:28:00;;;;;;;3.50;1.40;;;18.70;79.50;;;;;;4945618;28;97752;-56
2022/04/21 01:30:31;;;;;;;6.00;1.48;;;18.70;79.50;;;;;;4937878;28;99324;-58
2022/04/21 01:33:04;;;;;;;3.25;1.60;;;18.80;79.40;;;;;;4961355;28;95323;-56
2022/04/21 01:35:36;;;;;;;4.63;1.35;;;18.80;79.20;;;;;;4961779;28;96134;-54
2022/04/21 01:41:10;;;;;;;3.35;1.20;;;18.90;79.30;;;;;;4956103;28;96373;-56
2022/04/21 01:43:43;;;;;;;3.78;1.30;;;18.80;79.00;;;;;;4956923;28;95957;-53
2022/04/21 01:46:14;;;;;;;5.65;1.30;;;18.90;79.00;;;;;;4947879;28;95768;-59
2022/04/21 01:48:45;;;;;;;3.03;1.23;;;18.90;78.90;;;;;;4942493;28;95919;-55
2022/04/21 01:51:16;;;;;;;2.83;1.38;;;18.90;78.80;;;;;;4935888;28;96333;-54
2022/04/21 01:53:46;;;;;;;2.13;1.02;;;19.00;79.30;;;;;;4937977;28;96177;-52
2022/04/21 01:56:18;;;;;;;1.80;1.05;;;19.00;78.60;;;;;;4943058;28;95859;-57
2022/04/21 01:58:48;;;;;;;4.43;1.63;;;19.00;78.50;;;;;;4941294;28;96079;-56
2022/04/21 02:01:19;;;;;;;2.10;1.10;;;19.00;78.40;;;;;;4931443;28;96009;-58
2022/04/21 02:03:49;;;;;;;3.03;1.27;;;19.00;78.40;;;;;;4938597;28;96390;-55
2022/04/21 02:06:19;;;;;;;2.22;1.08;;;18.90;78.40;;;;;;4945095;28;96693;-56
2022/04/21 02:08:51;;;;;;;3.10;1.00;;;19.00;78.40;;;;;;4943533;28;96904;-50
2022/04/21 02:11:21;;;;;;;4.72;1.65;;;19.00;78.30;;;;;;4942961;28;97087;-56
2022/04/21 02:13:52;;;;;;;2.58;1.20;;;19.00;78.20;;;;;;4941787;28;96777;-58
2022/04/21 02:16:24;;;;;;;3.72;1.60;;;19.00;77.70;;;;;;4936137;28;96341;-56
2022/04/21 02:18:55;;;;;;;3.00;1.60;;;19.10;78.10;;;;;;4936097;28;96502;-58
2022/04/21 02:21:29;;;;;;;4.00;1.27;;;19.10;78.20;;;;;;4941623;28;97108;-56
2022/04/21 02:24:00;;;;;;;3.55;0.95;;;19.20;78.00;;;;;;4942976;28;96010;-59
2022/04/21 02:26:30;;;;;;;1.77;1.00;;;19.20;77.20;;;;;;4942634;28;97182;-55
2022/04/21 02:29:00;;;;;;;4.53;1.50;;;19.20;78.00;;;;;;4942157;28;95981;-57
2022/04/21 02:31:33;;;;;;;2.80;1.15;;;19.20;77.20;;;;;;4931742;28;95713;-58
2022/04/21 02:34:04;;;;;;;5.78;1.83;;;19.20;77.70;;;;;;4939827;28;95334;-58
2022/04/21 02:36:35;;;;;;;;;;;19.10;69.10;;;;;;4940857;28;96497;-58
2022/04/21 02:39:05;;;;;;;6.68;1.75;;;18.50;70.40;;;;;;4943118;28;96639;-58
2022/04/21 02:41:38;;;;;;;10.93;2.78;;;18.00;70.20;;;;;;4930759;28;96167;-57
2022/04/21 02:44:09;;;;;;;7.13;1.63;;;17.70;73.20;;;;;;4938139;28;96079;-58
2022/04/21 02:46:41;;;;;;;6.57;1.60;;;17.60;70.90;;;;;;4930953;28;96181;-57
2022/04/21 02:49:12;;;;;;;;;;;17.40;72.80;;;;;;4943187;28;95851;-59
2022/04/21 02:51:44;;;;;;;11.18;2.45;;;17.40;72.80;;;;;;4939738;28;96178;-59
2022/04/21 02:57:21;;;;;;;12.63;2.30;;;17.20;72.30;;;;;;4942954;28;97967;-58
2022/04/21 02:59:53;;;;;;;6.32;1.70;;;17.20;73.10;;;;;;4942797;28;95952;-59
2022/04/21 03:02:24;;;;;;;10.52;2.40;;;17.20;71.90;;;;;;4933176;28;95940;-58
2022/04/21 03:04:55;;;;;;;9.18;1.98;;;17.30;72.50;;;;;;4940270;28;95330;-57
2022/04/21 03:07:26;;;;;;;8.93;2.03;;;17.40;71.60;;;;;;4937610;28;95706;-57
2022/04/21 03:09:57;;;;;;;;;;;17.40;67.10;;;;;;4938323;28;96155;-58
2022/04/21 03:12:29;;;;;;;8.25;1.95;;;17.40;70.40;;;;;;4940052;28;96657;-57
2022/04/21 03:15:01;;;;;;;6.95;2.28;;;17.40;71.10;;;;;;4942248;28;95793;-56
2022/04/21 03:17:32;;;;;;;8.23;2.53;;;17.50;71.10;;;;;;4943154;28;97122;-56
2022/04/21 03:20:03;;;;;;;4.40;1.80;;;17.60;68.60;;;;;;4941605;28;95717;-54
2022/04/21 03:25:22;;;;;;;8.68;2.30;;;17.60;70.40;;;;;;4936286;28;95830;-56
2022/04/21 03:27:52;;;;;;;10.10;2.05;;;17.70;70.40;;;;;;4937423;28;95861;-55
2022/04/21 03:30:24;;;;;;;7.65;2.47;;;17.80;69.30;;;;;;4932863;28;96654;-57
2022/04/21 03:32:54;;;;;;;10.25;2.60;;;17.80;70.60;;;;;;4938678;28;95945;-58
2022/04/21 03:35:25;;;;;;;10.82;3.17;;;17.70;70.60;;;;;;4939840;28;96123;-54
2022/04/21 03:37:56;;;;;;;12.63;2.65;;;17.60;70.10;;;;;;4941169;28;95922;-56
2022/04/21 03:40:28;;;;;;;;;;;17.50;72.90;;;;;;4934215;28;95983;-57
2022/04/21 03:42:59;;;;;;;9.88;3.42;;;17.50;70.30;;;;;;4930536;28;95865;-58
2022/04/21 03:45:30;;;;;;;7.88;2.45;;;17.40;67.70;;;;;;4930716;28;95839;-55
2022/04/21 03:48:02;;;;;;;;;;;17.30;69.90;;;;;;4965015;28;96037;-57
2022/04/21 03:50:34;;;;;;;14.77;2.63;;;17.30;70.30;;;;;;4940608;28;96285;-57
2022/04/21 03:53:05;;;;;;;13.07;2.08;;;17.30;69.30;;;;;;4939125;28;95969;-55
2022/04/21 03:55:36;;;;;;;7.43;1.90;;;17.30;69.60;;;;;;4940739;28;95790;-58
2022/04/21 03:58:06;;;;;;;6.85;1.92;;;17.30;70.50;;;;;;4953058;28;95913;-55
2022/04/21 04:00:36;;;;;;;8.13;2.42;;;17.40;71.80;;;;;;4928239;28;95885;-58
2022/04/21 04:03:06;;;;;;;9.70;1.90;;;17.40;68.50;;;;;;4938117;28;96417;-55
2022/04/21 04:05:38;;;;;;;9.27;2.50;;;17.50;68.70;;;;;;4940406;28;96122;-57
2022/04/21 04:11:00;;;;;;;8.65;2.03;;;17.60;66.60;;;;;;4940565;28;96991;-57
2022/04/21 04:13:32;;;;;;;7.60;1.73;;;17.60;67.40;;;;;;4939795;28;95988;-57
2022/04/21 04:16:04;;;;;;;7.95;2.30;;;17.60;68.70;;;;;;4924916;28;95839;-55
2022/04/21 04:18:36;;;;;;;4.72;1.98;;;17.80;67.90;;;;;;4939110;28;97614;-55
2022/04/21 04:21:07;;;;;;;;;;;17.80;66.20;;;;;;4962237;28;95880;-58
2022/04/21 04:23:39;;;;;;;6.10;1.75;;;17.70;66.30;;;;;;4940324;28;95955;-56
2022/04/21 04:26:08;;;;;;;;;;;17.80;65.40;;;;;;4941464;28;96151;-58
2022/04/21 04:28:38;;;;;;;11.05;2.30;;;17.80;66.60;;;;;;4942112;28;95681;-59
2022/04/21 04:31:10;;;;;;;14.35;2.28;;;17.80;65.90;;;;;;4929866;28;95938;-56
2022/04/21 04:33:40;;;;;;;7.63;1.85;;;17.80;68.40;;;;;;4936509;28;95946;-57
2022/04/21 04:36:13;;;;;;;6.03;1.73;;;17.70;65.30;;;;;;4940107;28;95917;-57
2022/04/21 04:38:45;;;;;;;6.72;1.90;;;17.80;68.50;;;;;;4941324;28;95905;-53
2022/04/21 04:44:08;;;;;;;8.40;2.00;;;17.80;67.00;;;;;;4936906;28;96468;-57
2022/04/21 04:46:40;;;;;;;6.80;1.70;;;17.70;64.20;;;;;;4932370;28;97277;-55
2022/04/21 04:49:11;;;;;;;11.85;1.95;;;17.70;65.70;;;;;;4935708;28;96107;-60
2022/04/21 04:51:42;;;;;;;6.50;1.90;;;17.70;67.10;;;;;;4940076;28;96500;-56
2022/04/21 04:54:16;;;;;;;7.85;2.42;;;17.70;64.90;;;;;;4940647;28;96612;-57
2022/04/21 04:56:48;;;;;;;6.38;1.52;;;17.60;65.40;;;;;;4943887;28;95918;-58
2022/04/21 04:59:21;;;;;;;20.58;2.45;;;17.60;63.10;;;;;;4944357;28;95347;-59
2022/04/21 05:01:51;;;;;;;4.90;1.70;;;17.70;65.50;;;;;;4936226;28;95909;-57
2022/04/21 05:04:21;;;;;;;7.38;1.58;;;17.80;64.40;;;;;;4940540;28;95888;-55
2022/04/21 05:06:54;;;;;;;6.95;1.60;;;17.80;63.10;;;;;;4936397;28;96009;-58
2022/04/21 05:09:26;;;;;;;8.02;1.83;;;17.90;64.10;;;;;;4944117;28;96041;-54
2022/04/21 05:11:57;;;;;;;9.45;2.65;;;17.90;63.90;;;;;;4937949;28;95933;-58
2022/04/21 05:14:29;;;;;;;6.38;1.42;;;17.90;62.70;;;;;;4944803;28;95765;-55
2022/04/21 05:16:59;;;;;;;;;;;17.90;61.80;;;;;;4937105;28;98326;-55
2022/04/21 05:19:30;;;;;;;7.28;1.92;;;17.90;61.20;;;;;;4943660;28;96040;-57
2022/04/21 05:22:04;;;;;;;4.78;1.45;;;17.90;62.80;;;;;;4938401;28;95932;-55
2022/04/21 05:24:35;;;;;;;9.48;1.98;;;17.80;63.40;;;;;;4941457;28;95962;-57
2022/04/21 05:27:06;;;;;;;9.05;2.42;;;17.80;63.00;;;;;;4942597;28;95978;-56
2022/04/21 05:32:30;;;;;;;7.15;2.08;;;17.70;62.00;;;;;;4935716;28;98578;-57
2022/04/21 05:35:11;;;;;;;7.88;1.80;;;17.80;60.80;;;;;;4942853;28;96602;-57
2022/04/21 05:37:42;;;;;;;7.10;2.20;;;17.80;63.00;;;;;;4941842;28;96787;-57
2022/04/21 05:40:13;;;;;;;4.57;1.35;;;17.80;59.70;;;;;;4935095;28;96011;-58
2022/04/21 05:42:49;;;;;;;5.55;1.40;;;17.70;60.50;;;;;;4935577;28;96022;-56
2022/04/21 05:45:22;;;;;;;8.02;1.65;;;17.50;63.10;;;;;;4935648;28;97189;-55
2022/04/21 05:47:55;;;;;;;8.60;2.08;;;17.50;62.80;;;;;;4942530;28;95756;-58
2022/04/21 05:50:27;;;;;;;4.72;2.03;;;17.30;62.70;;;;;;4942632;28;95786;-58
2022/04/21 05:53:01;;;;;;;7.28;1.65;;;17.10;64.00;;;;;;4941185;28;96112;-55
2022/04/21 05:55:35;;;;;;;6.78;1.45;;;17.10;64.60;;;;;;4937645;28;96944;-54
2022/04/21 05:58:05;;;;;;;5.45;1.75;;;17.00;64.50;;;;;;4967747;28;96071;-57
2022/04/21 06:00:35;;;;;;;7.40;1.95;;;17.10;64.80;;;;;;4932816;28;95772;-56
2022/04/21 06:03:07;;;;;;;8.25;2.00;;;16.90;64.00;;;;;;4941889;28;95943;-58
2022/04/21 06:05:39;;;;;;;10.18;2.33;;;16.70;63.90;;;;;;4942884;28;95917;-58
2022/04/21 06:08:11;;;;;;;7.40;2.00;;;16.70;64.60;;;;;;4938258;28;95340;-58
2022/04/21 06:10:41;;;;;;;;;;;16.80;65.80;;;;;;4941913;28;96033;-57
2022/04/21 06:13:15;;;;;;;7.85;2.13;;;16.80;65.50;;;;;;4939709;28;95805;-57
2022/04/21 06:15:47;;;;;;;16.15;3.10;;;16.80;64.30;;;;;;4959602;28;96253;-54
2022/04/21 06:18:19;;;;;;;4.65;1.58;;;16.60;63.90;;;;;;4942393;28;95594;-56
2022/04/21 06:20:50;;;;;;;10.25;2.20;;;16.60;63.10;;;;;;4942911;28;98296;-59
2022/04/21 06:23:21;;;;;;;;;;;16.50;64.00;;;;;;4942639;28;96460;-59
2022/04/21 06:25:58;;;;;;;7.65;1.90;;;16.50;65.40;;;;;;4940388;28;96595;-58
2022/04/21 06:28:29;;;;;;;9.63;2.20;;;16.50;65.50;;;;;;4937954;28;95886;-59
2022/04/21 06:31:01;;;;;;;10.52;2.05;;;16.60;66.10;;;;;;4929748;28;95955;-59
2022/04/21 06:33:32;;;;;;;7.20;1.73;;;16.40;66.50;;;;;;4942533;28;97253;-58
2022/04/21 06:36:07;;;;;;;7.38;1.70;;;16.40;65.30;;;;;;4941618;28;95958;-59
2022/04/21 06:38:38;;;;;;;7.38;1.83;;;16.40;65.90;;;;;;4942205;28;95878;-58
2022/04/21 06:41:11;;;;;;;;;;;16.30;65.90;;;;;;4934060;28;96354;-58
2022/04/21 06:49:46;;;;;;;8.43;1.80;;;16.30;64.20;;;;;;4945018;28;96104;-59
2022/04/21 06:52:17;;;;;;;7.50;1.90;;;16.10;65.50;;;;;;4961890;28;95783;-59
2022/04/21 06:54:48;;;;;;;10.15;2.25;;;16.10;67.40;;;;;;4962525;28;95783;-60
2022/04/21 06:57:20;;;;;;;2.13;1.08;;;16.20;69.90;;;;;;4961906;28;98030;-59
2022/04/21 06:59:51;;;;;;;2.92;1.27;;;16.90;74.30;;;;;;4961980;28;95291;-61
2022/04/21 07:02:31;;;;;;;3.88;1.50;;;17.50;74.00;;;;;;4949356;28;95358;-61
2022/04/21 07:05:09;;;;;;;1.90;1.17;;;18.10;74.30;;;;;;4958835;28;95857;-61
2022/04/21 07:07:42;;;;;;;5.20;1.58;;;18.40;73.00;;;;;;4961586;28;96954;-61
2022/04/21 07:10:17;;;;;;;6.10;1.75;;;18.70;73.00;;;;;;4963016;28;95897;-60
2022/04/21 07:12:51;;;;;;;2.70;1.33;;;18.80;72.80;;;;;;4961257;28;95373;-59
2022/04/21 07:15:22;;;;;;;6.38;1.42;;;19.00;72.70;;;;;;4954124;28;97755;-56
2022/04/21 07:17:54;;;;;;;6.65;1.55;;;19.00;72.50;;;;;;4957299;28;102462;-57
2022/04/21 07:20:31;;;;;;;1.95;1.00;;;19.10;72.60;;;;;;4954983;28;95848;-57
2022/04/21 07:23:04;;;;;;;4.22;1.52;;;19.10;72.60;;;;;;4961710;28;95763;-58
2022/04/21 07:25:35;;;;;;;3.03;1.00;;;19.20;72.50;;;;;;4960191;28;97357;-57
2022/04/21 07:28:05;;;;;;;6.53;1.45;;;19.30;72.40;;;;;;4961096;28;96221;-56
2022/04/21 07:30:36;;;;;;;3.70;1.33;;;19.30;72.20;;;;;;4954886;28;97127;-57
2022/04/21 07:33:06;;;;;;;3.50;1.50;;;19.30;72.00;;;;;;4960616;28;96138;-56
2022/04/21 07:35:41;;;;;;;1.48;0.90;;;19.40;72.20;;;;;;4955863;28;96109;-56
2022/04/21 07:38:14;;;;;;;3.15;1.20;;;19.40;72.10;;;;;;4956630;28;95844;-58
2022/04/21 07:40:50;;;;;;;4.88;1.75;;;19.40;72.10;;;;;;4950623;28;96131;-57
2022/04/21 07:43:22;;;;;;;2.80;1.20;;;19.50;72.10;;;;;;4955457;28;95397;-54
2022/04/21 07:45:55;;;;;;;2.83;1.42;;;19.50;72.30;;;;;;4953569;28;95888;-58
2022/04/21 07:49:44;;;;;;;2.92;1.38;;;19.50;72.40;;;;;;4960750;28;96038;-59
2022/04/21 07:51:15;;;;;;;3.05;1.58;;;19.40;72.40;;;;;;4959182;28;97151;-58
2022/04/21 07:53:45;;;;;;;3.83;1.30;;;19.40;72.50;;;;;;4957714;28;96190;-56
2022/04/21 07:56:20;;;;;;;2.70;1.33;;;19.50;72.40;;;;;;4958587;28;96702;-56
2022/04/21 07:58:51;;;;;;;;;;;19.40;72.40;;;;;;4960802;28;97670;-57
2022/04/21 08:01:21;;;;;;;3.30;1.20;;;19.40;72.40;;;;;;4955305;28;95966;-56
2022/04/21 08:03:51;;;;;;;2.40;1.23;;;19.40;71.90;;;;;;4962079;28;96196;-58
2022/04/21 08:06:21;;;;;;;2.78;1.40;;;19.50;72.50;;;;;;4960845;28;99238;-58
2022/04/21 08:08:52;;;;;;;3.03;1.10;;;19.50;72.50;;;;;;4961053;28;96101;-56
2022/04/21 08:11:23;;;;;;;;;;;19.50;72.50;;;;;;4959745;28;95976;-56
2022/04/21 08:13:56;;;;;;;2.13;1.42;;;19.40;72.70;;;;;;4958075;28;96030;-53
2022/04/21 08:16:28;;;;;;;2.70;0.93;;;19.40;72.10;;;;;;4953990;28;96088;-55
2022/04/21 08:19:00;;;;;;;3.05;1.30;;;19.40;72.20;;;;;;4959668;28;95798;-58
2022/04/21 08:21:31;;;;;;;4.88;1.55;;;19.40;73.00;;;;;;4961501;28;96292;-57
2022/04/21 08:33:18;;;;;;;1.80;1.00;;;19.40;73.60;;;;;;4965801;28;96075;-57
2022/04/21 08:35:50;;;;;;;3.08;1.30;;;19.40;73.50;;;;;;4963356;28;96221;-57
2022/04/21 08:38:21;;;;;;;4.35;1.58;;;19.40;73.50;;;;;;4965111;28;96655;-58
2022/04/21 08:40:55;;;;;;;4.97;1.65;;;19.40;73.60;;;;;;4956505;28;96463;-57
2022/04/21 08:43:28;;;;;;;2.25;1.05;;;19.40;73.80;;;;;;4957295;28;95381;-58
2022/04/21 08:46:00;;;;;;;4.30;1.63;;;19.40;73.70;;;;;;4957923;28;96706;-58
2022/04/21 08:48:30;;;;;;;3.10;1.60;;;19.40;73.90;;;;;;4961319;28;96150;-58
2022/04/21 08:51:02;;;;;;;5.40;1.43;;;19.40;74.10;;;;;;4962683;28;97629;-57
2022/04/21 08:53:34;;;;;;;5.32;1.52;;;19.40;74.20;;;;;;4963411;28;96075;-59
2022/04/21 08:56:05;;;;;;;4.28;1.85;;;19.40;74.30;;;;;;4963963;28;96038;-58
2022/04/21 08:58:38;;;;;;;3.70;1.58;;;19.30;74.40;;;;;;4964360;28;95799;-58
2022/04/21 09:01:08;;;;;;;4.57;1.52;;;19.30;74.60;;;;;;4953647;28;96029;-58
2022/04/21 09:03:40;;;;;;;4.90;1.65;;;19.30;74.70;;;;;;4959401;28;95745;-58
2022/04/21 09:06:11;;;;;;;1.70;1.13;;;19.20;74.60;;;;;;4965074;28;95863;-60
2022/04/21 09:08:42;;;;;;;4.22;1.60;;;19.20;74.70;;;;;;4964492;28;95969;-57
2022/04/21 09:11:17;;;;;;;3.30;1.35;;;19.20;74.60;;;;;;4962545;28;95329;-54
2022/04/21 09:13:48;;;;;;;4.40;1.42;;;19.20;74.60;;;;;;4964107;28;95939;-57
2022/04/21 09:16:34;;;;;;;3.85;1.05;;;19.20;74.60;;;;;;4949126;28;95380;-58
2022/04/21 09:19:05;;;;;;;3.38;1.10;;;19.20;74.00;;;;;;4947313;28;96896;-55
2022/04/21 09:21:40;;;;;;;2.72;1.17;;;19.20;74.60;;;;;;4949845;28;95844;-58
2022/04/21 09:24:28;;;;;;;4.07;1.60;;;19.20;74.50;;;;;;4953076;28;95758;-57
2022/04/21 09:27:01;;;;;;;4.97;1.40;;;19.20;74.60;;;;;;4950910;28;95531;-54
2022/04/21 09:29:32;;;;;;;2.92;1.20;;;19.20;74.40;;;;;;4949220;28;97168;-59
2022/04/21 09:32:05;;;;;;;3.42;1.20;;;19.20;74.50;;;;;;4944810;28;95852;-56
2022/04/21 09:34:38;;;;;;;3.42;1.42;;;19.20;74.50;;;;;;4950949;28;95763;-55
2022/04/21 09:37:10;;;;;;;4.28;1.42;;;19.20;74.60;;;;;;4946952;28;95959;-57
2022/04/21 09:39:41;;;;;;;4.70;1.73;;;19.20;74.80;;;;;;4950138;28;96125;-58
2022/04/21 09:42:11;;;;;;;1.65;0.95;;;19.20;74.30;;;;;;4935839;28;96073;-58
2022/04/21 09:47:33;;;;;;;2.15;1.20;;;19.20;74.70;;;;;;4942753;28;96021;-57
2022/04/21 09:50:14;;;;;;;2.70;1.33;;;19.20;74.70;;;;;;4945509;28;96050;-58
2022/04/21 09:52:53;;;;;;;1.95;1.30;;;19.20;73.70;;;;;;4947749;28;96165;-59
2022/04/21 09:55:34;;;;;;;4.50;2.15;;;19.20;74.80;;;;;;4944668;28;95721;-58
2022/04/21 09:58:08;;;;;;;3.50;1.58;;;19.20;74.80;;;;;;4952000;28;95740;-57
2022/04/21 10:00:39;;;;;;;2.10;1.52;;;19.10;74.90;;;;;;4940985;28;95902;-60
2022/04/21 10:03:10;;;;;;;4.00;1.17;;;19.10;74.90;;;;;;4949843;28;97011;-60
2022/04/21 10:05:42;;;;;;;3.20;1.20;;;19.10;74.90;;;;;;4944050;28;95366;-57
2022/04/21 10:08:13;;;;;;;5.53;1.55;;;19.10;74.90;;;;;;4948676;28;95448;-58
2022/04/21 10:10:53;;;;;;;4.63;1.00;;;19.10;74.80;;;;;;4947611;28;96818;-54
2022/04/21 10:13:23;;;;;;;1.70;1.27;;;19.20;74.80;;;;;;4946962;28;95691;-56
2022/04/21 10:15:55;;;;;;;3.80;1.30;;;19.20;74.80;;;;;;4945196;28;95331;-59
2022/04/21 10:18:25;;;;;;;;;;;19.20;74.60;;;;;;4959947;28;95880;-58
2022/04/21 10:20:56;;;;;;;4.05;1.25;;;19.20;74.60;;;;;;4958153;28;97598;-58
2022/04/21 10:23:28;;;;;;;;;;;19.20;74.50;;;;;;4956287;28;95888;-58
2022/04/21 10:26:03;;;;;;;2.22;1.05;;;19.20;74.60;;;;;;4962341;28;95631;-56
2022/04/21 10:28:57;;;;;;;3.00;1.52;;;19.20;74.70;;;;;;4960255;28;95904;-59
2022/04/21 10:31:35;;;;;;;1.63;0.90;;;19.20;74.30;;;;;;4945024;28;95924;-59
2022/04/21 10:34:07;;;;;;;4.50;1.55;;;19.20;74.80;;;;;;4939427;28;96521;-57
2022/04/21 10:36:47;;;;;;;5.18;1.48;;;19.20;74.90;;;;;;4938134;28;96555;-54
2022/04/21 10:39:27;;;;;;;2.70;1.23;;;19.20;74.70;;;;;;4932369;28;95352;-60
2022/04/21 10:42:16;;;;;;;4.20;1.55;;;19.20;74.50;;;;;;4928216;28;96688;-59
2022/04/21 10:44:52;;;;;;;4.70;1.20;;;19.10;74.50;;;;;;4940400;28;96745;-61
2022/04/21 10:47:31;;;;;;;3.83;1.45;;;19.10;74.50;;;;;;4932277;28;97768;-58
2022/04/21 10:50:13;;;;;;;6.07;1.27;;;19.00;74.40;;;;;;4938430;28;95256;-61
2022/04/21 10:58:35;;;;;;;1.73;1.30;;;19.00;74.30;;;;;;4934366;28;96147;-57
2022/04/21 11:01:15;;;;;;;1.40;1.20;;;18.90;74.30;;;;;;4928934;28;96910;-61
2022/04/21 11:04:04;;;;;;;2.78;1.83;;;18.90;74.30;;;;;;4937795;28;97848;-60
2022/04/21 11:07:07;;;;;;;2.00;1.45;;;18.80;74.20;;;;;;4936503;28;96643;-58
2022/04/21 11:09:50;;;;;;;2.20;1.30;;;18.80;74.40;;;;;;4937635;28;97235;-56
2022/04/21 11:12:51;;;;;;;3.72;1.80;;;18.80;74.30;;;;;;4934852;28;95939;-59
2022/04/21 11:15:36;;;;;;;5.45;1.85;;;18.80;74.30;;;;;;4931018;28;96107;-57
2022/04/21 11:18:12;;;;;;;2.90;2.08;;;18.80;74.30;;;;;;4939090;28;102227;-57
2022/04/21 11:20:49;;;;;;;3.65;1.63;;;18.70;74.20;;;;;;4940965;28;95903;-58
2022/04/21 11:23:48;;;;;;;3.90;1.75;;;18.70;74.20;;;;;;4939568;28;95948;-59
2022/04/21 11:26:30;;;;;;;4.60;2.05;;;18.70;74.10;;;;;;4939449;28;96528;-57
2022/04/21 11:29:05;;;;;;;5.45;2.25;;;18.70;74.20;;;;;;4937315;28;95908;-59
2022/04/21 11:31:39;;;;;;;2.90;2.03;;;18.70;73.70;;;;;;4929518;28;96544;-59
2022/04/21 11:34:22;;;;;;;2.42;1.88;;;18.70;73.60;;;;;;4942133;28;96545;-59
2022/04/21 11:37:01;;;;;;;5.45;1.70;;;18.70;74.20;;;;;;4943474;28;95791;-57
2022/04/21 11:39:37;;;;;;;2.72;1.60;;;18.60;74.10;;;;;;4940475;28;95810;-57
2022/04/21 11:42:09;;;;;;;3.50;1.77;;;18.60;74.40;;;;;;4944893;28;96745;-58
2022/04/21 11:44:45;;;;;;;2.50;1.40;;;18.60;74.20;;;;;;4936901;28;96469;-58
2022/04/21 11:47:21;;;;;;;2.97;1.87;;;18.60;74.20;;;;;;4930131;28;96433;-61
2022/04/21 11:50:00;;;;;;;3.00;1.60;;;18.60;74.20;;;;;;4940693;28;95706;-60
2022/04/21 11:52:32;;;;;;;2.00;1.75;;;18.60;74.20;;;;;;4937502;28;96142;-58
2022/04/21 11:55:04;;;;;;;3.92;1.40;;;18.60;74.20;;;;;;4938873;28;96095;-64
2022/04/21 11:57:46;;;;;;;2.45;1.95;;;18.50;74.20;;;;;;4941095;28;96321;-58
2022/04/21 12:00:17;;;;;;;3.40;1.77;;;18.50;74.30;;;;;;4934639;28;95932;-59
2022/04/21 12:08:37;;;;;;;4.83;1.80;;;18.50;74.30;;;;;;4938515;28;97911;-59
2022/04/21 12:11:10;;;;;;;5.07;2.17;;;18.40;74.20;;;;;;4963752;28;96087;-59
2022/04/21 12:13:42;;;;;;;1.33;1.20;;;18.40;74.60;;;;;;4940785;28;96370;-58
2022/04/21 12:16:37;;;;;;;2.85;1.48;;;18.50;74.70;;;;;;4930562;28;95646;-60
2022/04/21 12:19:35;;;;;;;3.97;1.88;;;18.50;74.80;;;;;;4941033;28;96434;-57
2022/04/21 12:22:18;;;;;;;4.50;1.45;;;18.60;75.50;;;;;;4940995;28;95957;-55
2022/04/21 12:24:55;;;;;;;2.33;1.67;;;18.80;76.60;;;;;;4937898;28;95884;-59
2022/04/21 12:27:35;;;;;;;3.17;1.55;;;18.90;75.10;;;;;;4939329;28;98043;-56
2022/04/21 12:30:13;;;;;;;2.63;1.58;;;19.00;75.40;;;;;;4940471;28;96722;-59
2022/04/21 12:32:52;;;;;;;3.28;1.23;;;19.20;75.30;;;;;;4934999;28;96533;-57
2022/04/21 12:35:49;;;;;;;1.33;1.10;;;19.30;75.10;;;;;;4964386;28;95889;-57
2022/04/21 12:41:11;;;;;;;3.22;1.35;;;19.50;74.80;;;;;;4930940;28;96037;-60
2022/04/21 12:43:43;;;;;;;3.65;1.10;;;19.60;74.60;;;;;;4959805;28;96670;-58
2022/04/21 12:46:15;;;;;;;2.33;1.25;;;19.70;74.40;;;;;;4930814;28;96217;-60
2022/04/21 12:48:51;;;;;;;1.13;1.02;;;19.80;74.30;;;;;;4942065;28;95725;-58
2022/04/21 12:51:22;;;;;;;1.88;1.25;;;19.90;74.20;;;;;;4940451;28;97007;-59
2022/04/21 12:53:59;;;;;;;3.22;1.23;;;20.00;73.50;;;;;;4942073;28;96634;-55
2022/04/21 12:56:38;;;;;;;2.03;1.05;;;19.90;73.20;;;;;;4942583;28;95809;-58
2022/04/21 12:59:08;;;;;;;4.28;1.20;;;19.80;73.20;;;;;;4939976;28;96015;-58
2022/04/21 13:01:38;;;;;;;5.15;1.55;;;19.80;73.20;;;;;;4942796;28;96358;-53
2022/04/21 13:04:09;;;;;;;4.50;1.17;;;19.70;73.00;;;;;;4964444;28;95885;-55
2022/04/21 13:06:43;;;;;;;4.28;1.30;;;19.70;73.00;;;;;;4961812;28;96427;-57
2022/04/21 13:09:14;;;;;;;2.88;1.30;;;19.70;73.10;;;;;;4958867;28;95802;-57
2022/04/21 13:11:45;;;;;;;2.00;1.20;;;19.90;73.30;;;;;;4957220;28;96537;-58
2022/04/21 13:14:20;;;;;;;3.35;1.10;;;20.00;73.00;;;;;;4958857;28;95807;-57
2022/04/21 13:16:50;;;;;;;2.17;1.00;;;20.20;72.90;;;;;;4952335;28;97945;-57
2022/04/21 13:19:20;;;;;;;2.05;1.23;;;20.30;72.80;;;;;;4958200;28;95975;-56
2022/04/21 13:22:06;;;;;;;3.30;1.45;;;20.40;72.60;;;;;;4960805;28;96581;-57
2022/04/21 13:24:38;;;;;;;1.58;1.10;;;20.50;72.50;;;;;;4962355;28;95949;-55
2022/04/21 13:27:10;;;;;;;2.55;1.38;;;20.50;71.20;;;;;;4965502;28;95752;-57
2022/04/21 13:29:42;;;;;;;4.20;1.60;;;20.40;71.80;;;;;;4962601;28;96769;-58
2022/04/21 13:35:06;;;;;;;2.20;1.00;;;20.60;72.10;;;;;;4952718;28;97710;-58
2022/04/21 13:37:37;;;;;;;1.90;1.25;;;20.70;72.00;;;;;;4954145;28;97160;-59
2022/04/21 13:40:08;;;;;;;1.05;0.90;;;20.80;71.90;;;;;;4951644;28;97067;-60
2022/04/21 13:42:40;;;;;;;1.83;1.30;;;20.90;71.60;;;;;;4935709;28;95708;-58
2022/04/21 13:45:11;;;;;;;1.20;1.10;;;20.90;71.50;;;;;;4953242;28;95420;-58
2022/04/21 13:48:02;;;;;;;2.53;1.20;;;20.90;71.40;;;;;;4962866;28;97044;-61
2022/04/21 13:50:32;;;;;;;1.10;1.00;;;20.90;71.50;;;;;;4964388;28;96096;-60
2022/04/21 13:53:03;;;;;;;3.90;1.30;;;21.00;71.60;;;;;;4962920;28;96349;-57
2022/04/21 13:55:33;;;;;;;0.95;0.95;;;21.00;71.60;;;;;;4965090;28;95973;-55
2022/04/21 13:58:03;;;;;;;2.45;1.20;;;21.00;71.00;;;;;;4966821;28;95972;-58
2022/04/21 14:00:36;;;;;;;1.20;1.10;;;21.00;71.50;;;;;;4957807;28;96034;-58
2022/04/21 14:03:09;;;;;;;1.25;1.15;;;21.10;71.40;;;;;;4967351;28;95865;-57
2022/04/21 14:05:41;;;;;;;1.13;1.02;;;21.10;71.30;;;;;;4961978;28;95984;-60
2022/04/21 14:08:12;;;;;;;1.52;1.20;;;21.20;71.30;;;;;;4958837;28;96072;-58
2022/04/21 14:10:44;;;;;;;1.25;1.13;;;21.10;71.20;;;;;;4964710;28;95601;-58
2022/04/21 14:13:14;;;;;;;;;;;21.20;71.10;;;;;;4964245;28;95823;-56
2022/04/21 14:15:46;;;;;;;1.83;1.48;;;21.20;71.00;;;;;;4958099;28;97975;-56
2022/04/21 14:18:17;;;;;;;1.25;1.15;;;21.30;71.00;;;;;;4964057;28;95323;-59